Airfield :
LOGIN :

Register | Disclaimer

   EN    FR    IT 

 










Legend :    VFR   Marginal VFR   IFR   Intensive IFR   Very Intensive IFR
Visi :
Ceiling :
>= 8 km
>= 3000ft
5 to 8 km
1000 to 3000 ft
1500m to 5 km
500 to 1000 ft
800 to 1500m
200 to 500 ft
< 800m
< 200 ft
Symbols :   Thunderstorms  Fog  Heavy snow  Heavy precipitations  Wind > 20 kt
SIGMETs :     Misc.  Thunderstorms  Icing  Turbulence  Mountain Waves  Volcanic Ashes






- Airport Elevation : 37 ft
- IATA code : FRO


ENFL - Florø

CURRENT METAR :
  • 120020Z AUTO 07009KT 9999NDV SCT058/// BKN088/// OVC120/// M00/M07 Q1000

EXPIRED METARs :
  • 112350Z AUTO 07008KT 9999NDV BKN096/// OVC120/// M01/M08 Q1001
  • 112320Z AUTO 06010KT 9999NDV OVC100/// M01/M07 Q1001
  • 112250Z AUTO 06010KT 9999NDV BKN110/// M01/M07 Q1001
  • 112220Z 05011KT CAVOK M01/M08 Q1001
  • 112150Z 06010KT CAVOK M01/M08 Q1001

Expired Forecast.



MET'MAP, your aeronautical weather chart ! - Copyright ORBIFLY December 2007 - Disclaimer

ORBIFLY MET'MAP TEAM :

Programming & Development : Alexandra Zaïnal
Concept & Development : Baudouin d'Aumeries
Co-Development & Prog : Marc-Olivier Méhu
Technical & hardware support : Manuel Goepfert

Contact : metmap@orbifly.com




SOURCES & CREDITS :

   NOAA